25分钟前
罗盘
风向 的 风向 270° 渥太华麦克唐纳-卡蒂埃国际机场 14/32
风向 到 风: 5 千吨, 阵阵 10 千吨, 2 beaufort
0 500 1.500 3.000 5.000 8.000 10.000
没有云
METAR KOGS 201655Z AUTO 27005G10KT 7SM CLR M16/M23 A3038 RMK AO2

METAR定义 | 嵌入

24小时趋势

航班类别VFRLIFR
温度4 °C-19 °C
风速16 千吨0 千吨
能见度16 公里0 米

更多历史数据

下载我们的安卓应用程序

从你的主屏幕上轻松地访问你的航空天气。
只需一次付费,您就可以获得无广告的体验。

您会帮助我们保持Metar-Taf.com正常运行吗?
您的贡献有助于网站的进一步开发并支付费用。

没有更多广告

您是捐款5美元还是更多?然后,我们将永远不会再向您展示广告,这是我们永恒的感谢!
捐赠前先登录

METAR 渥太华麦克唐纳-卡蒂埃国际机场

渥太华麦克唐纳-卡蒂埃国际机场是Ottawa,加拿大中的大型机场。 机场有{a,plural,=1{一条跑道} other{#跑道}}: 4/22, 7/25 和 14/32

渥太华麦克唐纳-卡蒂埃国际机场最近未发布观察结果。相反,我们向您显示73 km的报告Ogdensburg International Airport。 该报告是针对2022年1月20日 11:55, 当地时间进行的。

机场观察

风来自西 (270°)方向,速度为5 千吨。 已测量10 千吨的阵风。

可见度为11 公里。

有没有云。 没有观察到天花板。

温度为-16 °C,阵风为-25 °C。 露点为-23 °C,相对湿度为55%。 海平面上的气压为1029 压力 (QNH)。

评论

  • 自动气象站,可确定降水类型 (AO2)

白天

今天,太阳从07:34升起,在16:52降落。 这适用于渥太华麦克唐纳-卡蒂埃国际机场,世界夏令时可能有所不同。 当地时间与世界标准时间之间的时差为-5 小时。 当前,没有夏令时有效。

公司介绍

在这个机场,你可以找到飞行学校。 本场上唯一已知的公司是Ottawa Flying Club。

体会

到Vliegles.nl去找飞行课程,跳伞和其他飞行体验。 浏览页面,了解渥太华麦克唐纳-卡蒂埃国际机场附近所有可用的活动。 你也可以使用搜索功能来寻找你所在地附近的特定飞行课程、跳伞或其他飞行体验。

您是否要在网站上渥太华麦克唐纳-卡蒂埃国际机场飞行的天气? 阅读更多   自由!